Terminal Aerodrome Forecast
Issued by NWS

Home | Current Version | Previous Version | Text Only | Print | Product List | Glossary On
Versions: 1 2 3 4 5 6 7 8 9 10 11 12 13 14 15 16 17 18 19 20 21 22 23 24 25 26
000
FTUS41 KBGM 051120
TAFRME
TAF
KRME 051120Z 0512/0612 08003KT P6SM OVC030
     FM051400 09008KT P6SM BKN035
     FM051700 03007KT P6SM BKN040
     FM060000 34004KT P6SM BKN040=

USA.gov is the U.S. government's official web portal to all federal, state and local government web resources and services.